Guymon Municipal Airport

About

Name: Guymon Municipal Airport
Identifier:  GUY/KGUY
Serves:  Guymon, Oklahoma
Owner:  City of Guymon
Public/Private:  Public
Local Time:  26. Jan 20:16 CST
Description: Guymon Municipal Airport is in Texas County, Oklahoma, two miles west of Guymon, which owns it. The FAA's National Plan of Integrated Airport Systems for 2009-2013 classified it as a general aviation airport.
Source: Wikipedia

Location

Guymon Municipal Airport

Runways
Identifier Length (m/ft) Surface
18/36 1,798/5,900 Asphalt
6/24 547/1,795 Turf

Statistics

Flights Per Day:
0 Flights
Distance: 379km (236mi)
Flights Delayed:
0% (0 Flights/Day Delayed)
Average Delay: 38 minutes

Current Weather

 4 C (Humidity: 55%)
  4kt (7km/h / 4mph) from 210°
  16km (10 mi.)
 METAR KGUY 270153Z AUTO 21004KT 10SM CLR 04/M04 A3000 RMK AO2 SLP161 T00441039

Claim Compensation

Claim compensation for your flight delay or cancellation
Flight delays happen, but that doesn’t mean you have to accept them. You may be entitled to as much as €600/$700 in compensation if your flight has been delayed, canceled or overbooked within the last three years.

Current Delays

Departures

N/A

Arrivals

N/A

Destinations

Map

Top Destinations

Airport Flights
per week
Seats
per week
  Oklahoma City (OKC) 0 - 0 0
  Woodward (WWR) 0 - 0 0

Airlines & Planes

Top Airlines

Airline Flights
per day
Seats
per day
Martinaire 0 -

Top Models

model Flights seats
Cessna C208 0.1/day - 0